JAL2084 ROAH-RJOO
Flight info
| Callsign | JAL2084 |
|---|---|
| Flight time | 1h 33m |
| Altitude | 41000 |
| Route | AMAMI Y53 MADOG Y753 IZUMI |
| Aircraft | A359/H-SDE2E3GHIJ3J4J5LM1ORWXY/LB1D1 |
Departure
| Time | 2026-05-04 21:31 |
|---|---|
| Airport | Naha International Airport (ROAH) |
Arrival
| Time | 2026-05-04 23:04 |
|---|---|
| Airport | Osaka Itami International Airport (RJOO) |
| Time | Latitude | Longitude | Altitude | Speed | Heading |
|---|---|---|---|---|---|
| 2026-05-04 21:21 | 26.20416 | 127.64932 | 26 ft | 4 kts | 29° |
| 2026-05-04 21:21 | 26.20413 | 127.64930 | 26 ft | 3 kts | 28° |
| 2026-05-04 21:22 | 26.20391 | 127.64918 | 31 ft | 3 kts | 25° |
| 2026-05-04 21:22 | 26.20376 | 127.64911 | 31 ft | 4 kts | 341° |
| 2026-05-04 21:22 | 26.20366 | 127.64918 | 31 ft | 4 kts | 291° |
| 2026-05-04 21:22 | 26.20359 | 127.64946 | 31 ft | 4 kts | 273° |
| 2026-05-04 21:23 | 26.20359 | 127.64960 | 31 ft | 1 kts | 267° |
| 2026-05-04 21:25 | 26.20359 | 127.64950 | 26 ft | 5 kts | 267° |
| 2026-05-04 21:25 | 26.20355 | 127.64875 | 28 ft | 12 kts | 267° |
| 2026-05-04 21:25 | 26.20341 | 127.64792 | 30 ft | 5 kts | 236° |
| 2026-05-04 21:25 | 26.20286 | 127.64770 | 28 ft | 13 kts | 185° |
| 2026-05-04 21:26 | 26.20192 | 127.64774 | 28 ft | 14 kts | 177° |
| 2026-05-04 21:26 | 26.20095 | 127.64779 | 28 ft | 14 kts | 177° |
| 2026-05-04 21:26 | 26.19992 | 127.64784 | 28 ft | 15 kts | 178° |
| 2026-05-04 21:26 | 26.19885 | 127.64788 | 28 ft | 16 kts | 178° |
| 2026-05-04 21:27 | 26.19775 | 127.64792 | 28 ft | 16 kts | 178° |
| 2026-05-04 21:27 | 26.19661 | 127.64797 | 28 ft | 17 kts | 177° |
| 2026-05-04 21:27 | 26.19544 | 127.64803 | 27 ft | 17 kts | 177° |
| 2026-05-04 21:27 | 26.19421 | 127.64809 | 28 ft | 18 kts | 177° |
| 2026-05-04 21:28 | 26.19291 | 127.64816 | 28 ft | 19 kts | 178° |
| 2026-05-04 21:28 | 26.19154 | 127.64822 | 28 ft | 20 kts | 177° |
| 2026-05-04 21:28 | 26.19008 | 127.64829 | 28 ft | 22 kts | 178° |
| 2026-05-04 21:28 | 26.18857 | 127.64836 | 28 ft | 23 kts | 177° |
| 2026-05-04 21:29 | 26.18694 | 127.64844 | 27 ft | 24 kts | 177° |
| 2026-05-04 21:29 | 26.18536 | 127.64835 | 26 ft | 16 kts | 210° |
| 2026-05-04 21:29 | 26.18519 | 127.64799 | 30 ft | 4 kts | 261° |
| 2026-05-04 21:29 | 26.18514 | 127.64761 | 27 ft | 6 kts | 262° |
| 2026-05-04 21:30 | 26.18514 | 127.64685 | 27 ft | 12 kts | 280° |
| 2026-05-04 21:30 | 26.18568 | 127.64642 | 25 ft | 0 kts | 356° |
| 2026-05-04 21:30 | 26.18812 | 127.64629 | 27 ft | 73 kts | 357° |
| 2026-05-04 21:31 | 26.20280 | 127.64549 | 264 ft | 158 kts | 360° |
| 2026-05-04 21:31 | 26.21374 | 127.64490 | 1067 ft | 155 kts | 2° |
| 2026-05-04 21:31 | 26.22505 | 127.64453 | 1722 ft | 176 kts | 1° |
| 2026-05-04 21:32 | 26.23832 | 127.64413 | 2101 ft | 202 kts | 1° |
| 2026-05-04 21:32 | 26.25263 | 127.64135 | 2486 ft | 220 kts | 341° |
| 2026-05-04 21:32 | 26.26721 | 127.63338 | 2765 ft | 245 kts | 333° |
| 2026-05-04 21:32 | 26.28240 | 127.62370 | 3330 ft | 255 kts | 331° |
| 2026-05-04 21:33 | 26.29807 | 127.61378 | 3963 ft | 262 kts | 330° |
| 2026-05-04 21:33 | 26.31413 | 127.60376 | 4628 ft | 267 kts | 329° |
| 2026-05-04 21:33 | 26.33049 | 127.59365 | 5286 ft | 271 kts | 329° |
| 2026-05-04 21:33 | 26.34701 | 127.58346 | 6018 ft | 271 kts | 328° |
| 2026-05-04 21:34 | 26.36352 | 127.57332 | 6722 ft | 272 kts | 328° |
| 2026-05-04 21:34 | 26.38015 | 127.56312 | 7358 ft | 273 kts | 327° |
| 2026-05-04 21:34 | 26.39680 | 127.55287 | 8003 ft | 274 kts | 326° |
| 2026-05-04 21:34 | 26.41176 | 127.54039 | 8633 ft | 270 kts | 308° |
| 2026-05-04 21:35 | 26.42107 | 127.52277 | 9335 ft | 262 kts | 285° |
| 2026-05-04 21:35 | 26.42283 | 127.50287 | 10046 ft | 258 kts | 263° |
| 2026-05-04 21:35 | 26.41724 | 127.48367 | 10490 ft | 269 kts | 242° |
| 2026-05-04 21:35 | 26.40403 | 127.46795 | 10688 ft | 292 kts | 217° |
| 2026-05-04 21:36 | 26.38572 | 127.45664 | 10896 ft | 307 kts | 215° |
| 2026-05-04 21:36 | 26.36934 | 127.44104 | 11091 ft | 316 kts | 229° |
| 2026-05-04 21:36 | 26.35281 | 127.42408 | 11291 ft | 331 kts | 220° |
| 2026-05-04 21:36 | 26.33195 | 127.41225 | 11639 ft | 344 kts | 201° |
| 2026-05-04 21:37 | 26.30796 | 127.40837 | 12102 ft | 354 kts | 186° |
| 2026-05-04 21:37 | 26.28322 | 127.40849 | 12585 ft | 356 kts | 184° |
| 2026-05-04 21:37 | 26.25837 | 127.40904 | 13061 ft | 358 kts | 184° |
| 2026-05-04 21:37 | 26.23346 | 127.40952 | 13541 ft | 359 kts | 184° |
| 2026-05-04 21:38 | 26.20842 | 127.40990 | 13995 ft | 360 kts | 184° |
| 2026-05-04 21:38 | 26.18333 | 127.41023 | 14391 ft | 362 kts | 184° |
| 2026-05-04 21:38 | 26.15805 | 127.41052 | 14744 ft | 364 kts | 184° |
| 2026-05-04 21:38 | 26.13263 | 127.41091 | 15119 ft | 368 kts | 183° |
| 2026-05-04 21:39 | 26.10700 | 127.41434 | 15482 ft | 376 kts | 172° |
| 2026-05-04 21:39 | 26.08218 | 127.42467 | 15857 ft | 388 kts | 157° |
| 2026-05-04 21:39 | 26.06026 | 127.44219 | 16213 ft | 401 kts | 142° |
| 2026-05-04 21:39 | 26.04262 | 127.46669 | 16561 ft | 413 kts | 125° |
| 2026-05-04 21:40 | 26.03148 | 127.49651 | 16910 ft | 424 kts | 108° |
| 2026-05-04 21:40 | 26.02831 | 127.52950 | 17251 ft | 434 kts | 90° |
| 2026-05-04 21:40 | 26.03394 | 127.56252 | 17594 ft | 440 kts | 71° |
| 2026-05-04 21:40 | 26.04812 | 127.59266 | 17940 ft | 441 kts | 52° |
| 2026-05-04 21:41 | 26.06775 | 127.61886 | 18287 ft | 443 kts | 46° |
| 2026-05-04 21:41 | 26.08846 | 127.64436 | 18575 ft | 445 kts | 46° |
| 2026-05-04 21:41 | 26.10837 | 127.67088 | 18867 ft | 449 kts | 54° |
| 2026-05-04 21:41 | 26.12236 | 127.70193 | 19175 ft | 452 kts | 72° |
| 2026-05-04 21:42 | 26.12991 | 127.73587 | 19482 ft | 453 kts | 79° |
| 2026-05-04 21:42 | 26.13600 | 127.77034 | 19769 ft | 455 kts | 80° |
| 2026-05-04 21:42 | 26.14206 | 127.80504 | 20097 ft | 457 kts | 80° |
| 2026-05-04 21:42 | 26.14816 | 127.83950 | 20384 ft | 460 kts | 79° |
| 2026-05-04 21:43 | 26.15443 | 127.87449 | 20672 ft | 462 kts | 79° |
| 2026-05-04 21:43 | 26.16243 | 127.90924 | 20937 ft | 465 kts | 71° |
| 2026-05-04 21:43 | 26.17605 | 127.94184 | 21230 ft | 465 kts | 57° |
| 2026-05-04 21:43 | 26.19566 | 127.97034 | 21527 ft | 464 kts | 43° |
| 2026-05-04 21:44 | 26.22007 | 127.99354 | 21811 ft | 461 kts | 32° |
| 2026-05-04 21:44 | 26.24659 | 128.01388 | 22081 ft | 462 kts | 29° |
| 2026-05-04 21:44 | 26.27382 | 128.03299 | 22365 ft | 463 kts | 27° |
| 2026-05-04 21:44 | 26.30134 | 128.05162 | 22658 ft | 464 kts | 27° |
| 2026-05-04 21:45 | 26.32910 | 128.07031 | 22965 ft | 466 kts | 27° |
| 2026-05-04 21:45 | 26.35687 | 128.08918 | 23264 ft | 469 kts | 27° |
| 2026-05-04 21:45 | 26.38468 | 128.10831 | 23601 ft | 471 kts | 27° |
| 2026-05-04 21:45 | 26.41257 | 128.12768 | 23885 ft | 473 kts | 27° |
| 2026-05-04 21:46 | 26.44053 | 128.14724 | 24136 ft | 476 kts | 28° |
| 2026-05-04 21:46 | 26.46862 | 128.16697 | 24377 ft | 478 kts | 27° |
| 2026-05-04 21:46 | 26.49677 | 128.18677 | 24598 ft | 480 kts | 27° |
| 2026-05-04 21:46 | 26.52511 | 128.20673 | 24811 ft | 482 kts | 27° |
| 2026-05-04 21:47 | 26.55314 | 128.22647 | 25029 ft | 484 kts | 27° |
| 2026-05-04 21:47 | 26.58174 | 128.24661 | 25248 ft | 486 kts | 27° |
| 2026-05-04 21:47 | 26.61036 | 128.26676 | 25463 ft | 488 kts | 27° |
| 2026-05-04 21:47 | 26.63908 | 128.28699 | 25692 ft | 489 kts | 27° |
| 2026-05-04 21:48 | 26.66796 | 128.30735 | 25929 ft | 491 kts | 27° |
| 2026-05-04 21:48 | 26.69693 | 128.32778 | 26159 ft | 493 kts | 27° |
| 2026-05-04 21:48 | 26.72599 | 128.34830 | 26397 ft | 495 kts | 27° |
| 2026-05-04 21:48 | 26.75518 | 128.36891 | 26636 ft | 497 kts | 27° |
| 2026-05-04 21:49 | 26.78443 | 128.38958 | 26870 ft | 499 kts | 27° |
| 2026-05-04 21:49 | 26.81383 | 128.41036 | 27103 ft | 501 kts | 27° |
| 2026-05-04 21:49 | 26.84344 | 128.43131 | 27330 ft | 503 kts | 27° |
| 2026-05-04 21:49 | 26.87311 | 128.45230 | 27576 ft | 505 kts | 27° |
| 2026-05-04 21:50 | 26.90289 | 128.47340 | 27817 ft | 508 kts | 28° |
| 2026-05-04 21:50 | 26.93279 | 128.49460 | 28074 ft | 510 kts | 28° |
| 2026-05-04 21:50 | 26.96281 | 128.51590 | 28341 ft | 512 kts | 28° |
| 2026-05-04 21:50 | 26.99298 | 128.53731 | 28608 ft | 514 kts | 28° |
| 2026-05-04 21:51 | 27.02326 | 128.55882 | 28884 ft | 516 kts | 28° |
| 2026-05-04 21:51 | 27.05360 | 128.58039 | 29152 ft | 518 kts | 28° |
| 2026-05-04 21:51 | 27.08418 | 128.60214 | 29411 ft | 521 kts | 28° |
| 2026-05-04 21:51 | 27.11481 | 128.62393 | 29686 ft | 523 kts | 28° |
| 2026-05-04 21:52 | 27.14524 | 128.64561 | 29967 ft | 526 kts | 28° |
| 2026-05-04 21:52 | 27.17617 | 128.66765 | 30255 ft | 528 kts | 28° |
| 2026-05-04 21:52 | 27.20726 | 128.68982 | 30501 ft | 530 kts | 28° |
| 2026-05-04 21:52 | 27.23851 | 128.71212 | 30744 ft | 533 kts | 28° |
| 2026-05-04 21:53 | 27.26987 | 128.73451 | 30976 ft | 535 kts | 27° |
| 2026-05-04 21:53 | 27.30137 | 128.75701 | 31192 ft | 539 kts | 27° |
| 2026-05-04 21:53 | 27.33308 | 128.77968 | 31425 ft | 541 kts | 27° |
| 2026-05-04 21:53 | 27.36495 | 128.80247 | 31654 ft | 544 kts | 27° |
| 2026-05-04 21:54 | 27.39692 | 128.82536 | 31888 ft | 546 kts | 27° |
| 2026-05-04 21:54 | 27.42908 | 128.84840 | 32113 ft | 549 kts | 27° |
| 2026-05-04 21:54 | 27.46132 | 128.87151 | 32339 ft | 551 kts | 27° |
| 2026-05-04 21:54 | 27.49370 | 128.89475 | 32589 ft | 553 kts | 27° |
| 2026-05-04 21:55 | 27.52619 | 128.91808 | 32823 ft | 554 kts | 27° |
| 2026-05-04 21:55 | 27.55875 | 128.94149 | 33051 ft | 556 kts | 26° |
| 2026-05-04 21:55 | 27.59146 | 128.96501 | 33298 ft | 557 kts | 26° |
| 2026-05-04 21:55 | 27.62411 | 128.98853 | 33661 ft | 556 kts | 26° |
| 2026-05-04 21:56 | 27.65667 | 129.01200 | 34047 ft | 555 kts | 26° |
| 2026-05-04 21:56 | 27.68919 | 129.03546 | 34392 ft | 554 kts | 26° |
| 2026-05-04 21:56 | 27.72166 | 129.05888 | 34684 ft | 554 kts | 26° |
| 2026-05-04 21:56 | 27.75423 | 129.08238 | 34973 ft | 554 kts | 26° |
| 2026-05-04 21:57 | 27.78630 | 129.10553 | 35261 ft | 555 kts | 26° |
| 2026-05-04 21:57 | 27.81883 | 129.12903 | 35558 ft | 555 kts | 26° |
| 2026-05-04 21:57 | 27.85139 | 129.15257 | 35833 ft | 555 kts | 26° |
| 2026-05-04 21:57 | 27.88392 | 129.17611 | 36101 ft | 556 kts | 26° |
| 2026-05-04 21:58 | 27.91653 | 129.19973 | 36401 ft | 556 kts | 26° |
| 2026-05-04 21:58 | 27.94910 | 129.22334 | 36709 ft | 556 kts | 26° |
| 2026-05-04 21:58 | 27.98167 | 129.24696 | 37010 ft | 556 kts | 26° |
| 2026-05-04 21:58 | 28.01423 | 129.27060 | 37315 ft | 556 kts | 26° |
| 2026-05-04 21:59 | 28.04681 | 129.29427 | 37616 ft | 556 kts | 25° |
| 2026-05-04 21:59 | 28.07937 | 129.31794 | 37900 ft | 557 kts | 25° |
| 2026-05-04 21:59 | 28.11200 | 129.34168 | 38223 ft | 557 kts | 25° |
| 2026-05-04 21:59 | 28.14458 | 129.36539 | 38538 ft | 556 kts | 25° |
| 2026-05-04 22:00 | 28.17720 | 129.38917 | 38859 ft | 555 kts | 25° |
| 2026-05-04 22:00 | 28.20963 | 129.41283 | 39136 ft | 554 kts | 25° |
| 2026-05-04 22:00 | 28.24161 | 129.43618 | 39358 ft | 554 kts | 25° |
| 2026-05-04 22:00 | 28.27400 | 129.45981 | 39517 ft | 554 kts | 25° |
| 2026-05-04 22:01 | 28.30637 | 129.48345 | 39759 ft | 553 kts | 25° |
| 2026-05-04 22:01 | 28.33870 | 129.50709 | 40022 ft | 552 kts | 25° |
| 2026-05-04 22:01 | 28.37093 | 129.53067 | 40262 ft | 551 kts | 25° |
| 2026-05-04 22:01 | 28.40320 | 129.55430 | 40493 ft | 551 kts | 25° |
| 2026-05-04 22:02 | 28.43532 | 129.57783 | 40743 ft | 550 kts | 25° |
| 2026-05-04 22:02 | 28.46749 | 129.60143 | 40957 ft | 549 kts | 25° |
| 2026-05-04 22:02 | 28.49968 | 129.62496 | 41102 ft | 550 kts | 25° |
| 2026-05-04 22:03 | 28.56402 | 129.67192 | 41106 ft | 549 kts | 25° |
| 2026-05-04 22:03 | 28.62834 | 129.71892 | 41125 ft | 550 kts | 25° |
| 2026-05-04 22:04 | 28.69268 | 129.76605 | 41137 ft | 550 kts | 25° |
| 2026-05-04 22:04 | 28.75709 | 129.81332 | 41138 ft | 550 kts | 25° |
| 2026-05-04 22:05 | 28.82100 | 129.86031 | 41140 ft | 551 kts | 25° |
| 2026-05-04 22:05 | 28.88536 | 129.90770 | 41139 ft | 551 kts | 25° |
| 2026-05-04 22:06 | 28.94985 | 129.95525 | 41140 ft | 552 kts | 25° |
| 2026-05-04 22:06 | 29.01436 | 130.00287 | 41139 ft | 552 kts | 25° |
| 2026-05-04 22:07 | 29.07883 | 130.05055 | 41142 ft | 552 kts | 25° |
| 2026-05-04 22:07 | 29.14338 | 130.09835 | 41143 ft | 553 kts | 25° |
| 2026-05-04 22:08 | 29.20802 | 130.14630 | 41146 ft | 553 kts | 25° |
| 2026-05-04 22:08 | 29.27263 | 130.19430 | 41147 ft | 554 kts | 25° |
| 2026-05-04 22:09 | 29.33727 | 130.24242 | 41145 ft | 554 kts | 25° |
| 2026-05-04 22:09 | 29.40156 | 130.29035 | 41150 ft | 555 kts | 25° |
| 2026-05-04 22:10 | 29.46639 | 130.33876 | 41149 ft | 556 kts | 26° |
| 2026-05-04 22:10 | 29.53125 | 130.38728 | 41148 ft | 556 kts | 26° |
| 2026-05-04 22:11 | 29.59600 | 130.43579 | 41151 ft | 556 kts | 26° |
| 2026-05-04 22:11 | 29.66088 | 130.48447 | 41149 ft | 557 kts | 26° |
| 2026-05-04 22:12 | 29.72581 | 130.53326 | 41153 ft | 557 kts | 26° |
| 2026-05-04 22:12 | 29.79062 | 130.58204 | 41156 ft | 557 kts | 26° |
| 2026-05-04 22:13 | 29.85553 | 130.63096 | 41152 ft | 557 kts | 26° |
| 2026-05-04 22:13 | 29.91999 | 130.67963 | 41157 ft | 558 kts | 26° |
| 2026-05-04 22:14 | 29.98489 | 130.72871 | 41155 ft | 558 kts | 26° |
| 2026-05-04 22:14 | 30.04976 | 130.77795 | 41163 ft | 558 kts | 26° |
| 2026-05-04 22:15 | 30.11473 | 130.82725 | 41157 ft | 558 kts | 26° |
| 2026-05-04 22:15 | 30.17966 | 130.87657 | 41162 ft | 558 kts | 26° |
| 2026-05-04 22:16 | 30.24455 | 130.92596 | 41160 ft | 559 kts | 26° |
| 2026-05-04 22:16 | 30.30947 | 130.97546 | 41159 ft | 559 kts | 26° |
| 2026-05-04 22:17 | 30.37437 | 131.02506 | 41160 ft | 559 kts | 26° |
| 2026-05-04 22:17 | 30.43921 | 131.07467 | 41161 ft | 559 kts | 26° |
| 2026-05-04 22:18 | 30.50411 | 131.12443 | 41161 ft | 559 kts | 26° |
| 2026-05-04 22:18 | 30.56897 | 131.17433 | 41159 ft | 559 kts | 26° |
| 2026-05-04 22:19 | 30.63337 | 131.22399 | 41161 ft | 559 kts | 26° |
| 2026-05-04 22:19 | 30.69820 | 131.27404 | 41159 ft | 560 kts | 26° |
| 2026-05-04 22:20 | 30.76305 | 131.32418 | 41160 ft | 560 kts | 26° |
| 2026-05-04 22:20 | 30.82786 | 131.37438 | 41163 ft | 560 kts | 26° |
| 2026-05-04 22:21 | 30.89270 | 131.42467 | 41164 ft | 560 kts | 26° |
| 2026-05-04 22:21 | 30.94657 | 131.46653 | 41161 ft | 560 kts | 26° |
| 2026-05-04 22:22 | 31.01135 | 131.51693 | 41165 ft | 560 kts | 26° |
| 2026-05-04 22:22 | 31.07614 | 131.56743 | 41162 ft | 560 kts | 26° |
| 2026-05-04 22:23 | 31.14091 | 131.61798 | 41169 ft | 560 kts | 26° |
| 2026-05-04 22:23 | 31.20562 | 131.66859 | 41166 ft | 560 kts | 26° |
| 2026-05-04 22:24 | 31.27046 | 131.71938 | 41174 ft | 560 kts | 27° |
| 2026-05-04 22:24 | 31.33519 | 131.77018 | 41172 ft | 560 kts | 27° |
| 2026-05-04 22:25 | 31.39964 | 131.82074 | 41177 ft | 560 kts | 27° |
| 2026-05-04 22:25 | 31.46446 | 131.87167 | 41172 ft | 561 kts | 27° |
| 2026-05-04 22:26 | 31.52924 | 131.92267 | 41171 ft | 561 kts | 27° |
| 2026-05-04 22:26 | 31.59398 | 131.97374 | 41171 ft | 561 kts | 27° |
| 2026-05-04 22:27 | 31.65883 | 132.02498 | 41170 ft | 562 kts | 27° |
| 2026-05-04 22:27 | 31.72366 | 132.07630 | 41177 ft | 562 kts | 27° |
| 2026-05-04 22:28 | 31.78862 | 132.12780 | 41178 ft | 563 kts | 27° |
| 2026-05-04 22:28 | 31.85355 | 132.17937 | 41172 ft | 563 kts | 27° |
| 2026-05-04 22:29 | 31.91849 | 132.23104 | 41175 ft | 564 kts | 27° |
| 2026-05-04 22:29 | 31.98355 | 132.28289 | 41173 ft | 564 kts | 27° |
| 2026-05-04 22:30 | 32.04812 | 132.33445 | 41175 ft | 565 kts | 27° |
| 2026-05-04 22:30 | 32.11169 | 132.38951 | 41176 ft | 575 kts | 38° |
| 2026-05-04 22:30 | 32.13865 | 132.42469 | 41174 ft | 582 kts | 51° |
| 2026-05-04 22:31 | 32.16189 | 132.46390 | 41176 ft | 584 kts | 54° |
| 2026-05-04 22:31 | 32.20539 | 132.54511 | 41174 ft | 586 kts | 56° |
| 2026-05-04 22:32 | 32.24779 | 132.62754 | 41180 ft | 587 kts | 57° |
| 2026-05-04 22:32 | 32.29037 | 132.70978 | 41174 ft | 587 kts | 56° |
| 2026-05-04 22:33 | 32.33340 | 132.79211 | 41171 ft | 588 kts | 56° |
| 2026-05-04 22:33 | 32.37642 | 132.87434 | 41174 ft | 588 kts | 56° |
| 2026-05-04 22:34 | 32.41935 | 132.95664 | 41213 ft | 588 kts | 55° |
| 2026-05-04 22:34 | 32.46239 | 133.03936 | 41179 ft | 591 kts | 55° |
| 2026-05-04 22:35 | 32.50515 | 133.12170 | 41175 ft | 591 kts | 56° |
| 2026-05-04 22:35 | 32.54818 | 133.20478 | 41179 ft | 591 kts | 56° |
| 2026-05-04 22:36 | 32.59113 | 133.28789 | 41181 ft | 591 kts | 56° |
| 2026-05-04 22:36 | 32.63405 | 133.37115 | 41183 ft | 591 kts | 56° |
| 2026-05-04 22:37 | 32.67680 | 133.45465 | 41184 ft | 592 kts | 56° |
| 2026-05-04 22:37 | 32.71873 | 133.53873 | 41176 ft | 592 kts | 57° |
| 2026-05-04 22:38 | 32.76048 | 133.62302 | 41184 ft | 592 kts | 57° |
| 2026-05-04 22:38 | 32.80234 | 133.70743 | 41189 ft | 592 kts | 57° |
| 2026-05-04 22:39 | 32.84416 | 133.79183 | 41188 ft | 593 kts | 57° |
| 2026-05-04 22:39 | 32.88601 | 133.87634 | 41186 ft | 593 kts | 57° |
| 2026-05-04 22:40 | 32.92752 | 133.96031 | 41185 ft | 593 kts | 57° |
| 2026-05-04 22:40 | 32.96928 | 134.04504 | 41173 ft | 593 kts | 57° |
| 2026-05-04 22:41 | 33.01101 | 134.12992 | 41195 ft | 593 kts | 57° |
| 2026-05-04 22:41 | 33.05352 | 134.21430 | 41181 ft | 591 kts | 50° |
| 2026-05-04 22:41 | 33.08011 | 134.25086 | 41030 ft | 577 kts | 38° |
| 2026-05-04 22:42 | 33.10917 | 134.28368 | 40401 ft | 575 kts | 36° |
| 2026-05-04 22:42 | 33.13919 | 134.31524 | 39695 ft | 576 kts | 34° |
| 2026-05-04 22:42 | 33.16977 | 134.34615 | 39023 ft | 578 kts | 33° |
| 2026-05-04 22:42 | 33.20068 | 134.37700 | 38244 ft | 580 kts | 33° |
| 2026-05-04 22:43 | 33.23165 | 134.40796 | 37491 ft | 581 kts | 33° |
| 2026-05-04 22:43 | 33.26253 | 134.43907 | 36757 ft | 582 kts | 34° |
| 2026-05-04 22:43 | 33.29343 | 134.47046 | 36016 ft | 583 kts | 34° |
| 2026-05-04 22:43 | 33.32424 | 134.50197 | 35279 ft | 584 kts | 34° |
| 2026-05-04 22:44 | 33.35514 | 134.53371 | 34541 ft | 585 kts | 34° |
| 2026-05-04 22:44 | 33.38597 | 134.56544 | 33746 ft | 586 kts | 35° |
| 2026-05-04 22:44 | 33.41674 | 134.59714 | 32961 ft | 585 kts | 35° |
| 2026-05-04 22:44 | 33.44711 | 134.62844 | 32235 ft | 583 kts | 36° |
| 2026-05-04 22:45 | 33.47784 | 134.66015 | 31461 ft | 581 kts | 36° |
| 2026-05-04 22:45 | 33.53895 | 134.72325 | 29834 ft | 578 kts | 37° |
| 2026-05-04 22:45 | 33.56926 | 134.75463 | 29119 ft | 573 kts | 37° |
| 2026-05-04 22:46 | 33.60065 | 134.78330 | 28442 ft | 560 kts | 28° |
| 2026-05-04 22:46 | 33.63293 | 134.80882 | 27856 ft | 552 kts | 27° |
| 2026-05-04 22:46 | 33.66521 | 134.83324 | 27271 ft | 544 kts | 26° |
| 2026-05-04 22:46 | 33.69724 | 134.85686 | 26719 ft | 536 kts | 26° |
| 2026-05-04 22:47 | 33.72893 | 134.87998 | 26185 ft | 529 kts | 26° |
| 2026-05-04 22:47 | 33.76012 | 134.90274 | 25645 ft | 521 kts | 26° |
| 2026-05-04 22:47 | 33.79090 | 134.92526 | 25122 ft | 514 kts | 26° |
| 2026-05-04 22:47 | 33.82116 | 134.94750 | 24595 ft | 507 kts | 26° |
| 2026-05-04 22:48 | 33.85096 | 134.96954 | 24079 ft | 499 kts | 27° |
| 2026-05-04 22:48 | 33.88037 | 134.99133 | 23525 ft | 492 kts | 27° |
| 2026-05-04 22:48 | 33.90931 | 135.01283 | 22755 ft | 488 kts | 26° |
| 2026-05-04 22:48 | 33.93847 | 135.03442 | 21537 ft | 498 kts | 26° |
| 2026-05-04 22:49 | 33.96826 | 135.05637 | 20603 ft | 503 kts | 26° |
| 2026-05-04 22:49 | 33.99799 | 135.07839 | 19977 ft | 497 kts | 26° |
| 2026-05-04 22:49 | 34.02725 | 135.10016 | 19331 ft | 493 kts | 26° |
| 2026-05-04 22:49 | 34.05591 | 135.12151 | 18689 ft | 489 kts | 27° |
| 2026-05-04 22:50 | 34.08474 | 135.14301 | 18005 ft | 484 kts | 27° |
| 2026-05-04 22:50 | 34.11310 | 135.16419 | 17339 ft | 478 kts | 27° |
| 2026-05-04 22:50 | 34.14131 | 135.18527 | 16747 ft | 472 kts | 27° |
| 2026-05-04 22:50 | 34.16829 | 135.20553 | 16292 ft | 441 kts | 27° |
| 2026-05-04 22:51 | 34.19345 | 135.22453 | 15818 ft | 413 kts | 26° |
| 2026-05-04 22:51 | 34.21708 | 135.24237 | 15410 ft | 389 kts | 26° |
| 2026-05-04 22:51 | 34.23937 | 135.25964 | 14874 ft | 374 kts | 28° |
| 2026-05-04 22:51 | 34.26065 | 135.27707 | 14173 ft | 366 kts | 28° |
| 2026-05-04 22:52 | 34.28151 | 135.29426 | 13425 ft | 359 kts | 28° |
| 2026-05-04 22:52 | 34.30190 | 135.31102 | 12702 ft | 350 kts | 28° |
| 2026-05-04 22:52 | 34.32187 | 135.32741 | 11961 ft | 344 kts | 28° |
| 2026-05-04 22:52 | 34.34153 | 135.34351 | 11232 ft | 338 kts | 28° |
| 2026-05-04 22:53 | 34.36077 | 135.35927 | 10540 ft | 331 kts | 29° |
| 2026-05-04 22:53 | 34.37963 | 135.37473 | 9846 ft | 324 kts | 29° |
| 2026-05-04 22:53 | 34.39811 | 135.38990 | 9086 ft | 318 kts | 30° |
| 2026-05-04 22:53 | 34.41628 | 135.40479 | 8362 ft | 312 kts | 30° |
| 2026-05-04 22:54 | 34.43390 | 135.41967 | 7648 ft | 307 kts | 34° |
| 2026-05-04 22:54 | 34.44798 | 135.43890 | 6934 ft | 305 kts | 57° |
| 2026-05-04 22:54 | 34.45841 | 135.46091 | 6239 ft | 299 kts | 60° |
| 2026-05-04 22:54 | 34.46827 | 135.48302 | 5425 ft | 298 kts | 59° |
| 2026-05-04 22:55 | 34.47813 | 135.50494 | 4643 ft | 295 kts | 58° |
| 2026-05-04 22:55 | 34.48795 | 135.52650 | 3963 ft | 290 kts | 58° |
| 2026-05-04 22:55 | 34.49770 | 135.54776 | 3604 ft | 287 kts | 58° |
| 2026-05-04 22:55 | 34.50698 | 135.56806 | 3520 ft | 261 kts | 58° |
| 2026-05-04 22:56 | 34.51519 | 135.58614 | 3509 ft | 235 kts | 57° |
| 2026-05-04 22:56 | 34.52279 | 135.60285 | 3555 ft | 215 kts | 56° |
| 2026-05-04 22:56 | 34.52999 | 135.61848 | 3533 ft | 211 kts | 56° |
| 2026-05-04 22:56 | 34.53740 | 135.63388 | 3514 ft | 212 kts | 52° |
| 2026-05-04 22:57 | 34.54729 | 135.64665 | 3504 ft | 204 kts | 28° |
| 2026-05-04 22:57 | 34.55980 | 135.65332 | 3510 ft | 192 kts | 3° |
| 2026-05-04 22:57 | 34.57283 | 135.65466 | 3506 ft | 186 kts | 352° |
| 2026-05-04 22:57 | 34.58558 | 135.65454 | 3496 ft | 185 kts | 349° |
| 2026-05-04 22:58 | 34.59822 | 135.65246 | 3506 ft | 181 kts | 337° |
| 2026-05-04 22:58 | 34.60919 | 135.64609 | 3512 ft | 171 kts | 318° |
| 2026-05-04 22:58 | 34.61834 | 135.63714 | 3511 ft | 168 kts | 311° |
| 2026-05-04 22:58 | 34.62686 | 135.62752 | 3504 ft | 168 kts | 309° |
| 2026-05-04 22:59 | 34.63525 | 135.61765 | 3489 ft | 167 kts | 308° |
| 2026-05-04 22:59 | 34.64348 | 135.60766 | 3513 ft | 167 kts | 308° |
| 2026-05-04 22:59 | 34.65168 | 135.59776 | 3498 ft | 166 kts | 309° |
| 2026-05-04 22:59 | 34.65991 | 135.58786 | 3497 ft | 166 kts | 309° |
| 2026-05-04 23:00 | 34.66814 | 135.57801 | 3346 ft | 166 kts | 309° |
| 2026-05-04 23:00 | 34.67627 | 135.56822 | 3129 ft | 163 kts | 309° |
| 2026-05-04 23:00 | 34.68406 | 135.55880 | 2913 ft | 152 kts | 308° |
| 2026-05-04 23:00 | 34.69132 | 135.55001 | 2729 ft | 143 kts | 308° |
| 2026-05-04 23:01 | 34.69831 | 135.54150 | 2519 ft | 142 kts | 308° |
| 2026-05-04 23:01 | 34.70535 | 135.53294 | 2312 ft | 144 kts | 308° |
| 2026-05-04 23:01 | 34.71251 | 135.52426 | 2139 ft | 147 kts | 308° |
| 2026-05-04 23:01 | 34.71960 | 135.51570 | 1925 ft | 140 kts | 310° |
| 2026-05-04 23:02 | 34.72618 | 135.50778 | 1759 ft | 127 kts | 309° |
| 2026-05-04 23:02 | 34.73227 | 135.50033 | 1543 ft | 122 kts | 306° |
| 2026-05-04 23:02 | 34.73818 | 135.49309 | 1296 ft | 119 kts | 310° |
| 2026-05-04 23:02 | 34.74413 | 135.48592 | 1000 ft | 122 kts | 311° |
| 2026-05-04 23:03 | 34.75015 | 135.47857 | 731 ft | 124 kts | 314° |
| 2026-05-04 23:03 | 34.75640 | 135.47100 | 517 ft | 130 kts | 314° |
| 2026-05-04 23:03 | 34.76280 | 135.46317 | 353 ft | 129 kts | 312° |
| 2026-05-04 23:03 | 34.76909 | 135.45540 | 163 ft | 128 kts | 315° |
| 2026-05-04 23:04 | 34.77537 | 135.44795 | 59 ft | 120 kts | 313° |
| 2026-05-04 23:04 | 34.78079 | 135.44141 | 54 ft | 96 kts | 316° |
| 2026-05-04 23:04 | 34.78408 | 135.43747 | 49 ft | 42 kts | 315° |
| 2026-05-04 23:04 | 34.78626 | 135.43543 | 53 ft | 39 kts | 329° |
| 2026-05-04 23:05 | 34.78702 | 135.43501 | 55 ft | 0 kts | 337° |
| 2026-05-04 23:05 | 34.78738 | 135.43482 | 53 ft | 14 kts | 337° |
| 2026-05-04 23:05 | 34.78836 | 135.43435 | 53 ft | 17 kts | 346° |
| 2026-05-04 23:05 | 34.78957 | 135.43434 | 57 ft | 18 kts | 13° |
| 2026-05-04 23:06 | 34.79054 | 135.43499 | 53 ft | 16 kts | 59° |
| 2026-05-04 23:06 | 34.79062 | 135.43658 | 53 ft | 22 kts | 94° |
| 2026-05-04 23:06 | 34.79098 | 135.43833 | 50 ft | 19 kts | 70° |
| 2026-05-04 23:06 | 34.79112 | 135.43891 | 54 ft | 5 kts | 74° |
| 2026-05-04 23:07 | 34.79117 | 135.43909 | 50 ft | 0 kts | 73° |